sensor_id;sensor_type;location;lat;lon;timestamp;temperature;humidity
41344;DHT22;27089;50.022;7.604;2022-09-09T00:00:19;15.40;99.90
41344;DHT22;27089;50.022;7.604;2022-09-09T00:02:55;15.40;99.90
41344;DHT22;27089;50.022;7.604;2022-09-09T00:05:31;15.40;99.90
41344;DHT22;27089;50.022;7.604;2022-09-09T00:08:02;15.40;99.90
41344;DHT22;27089;50.022;7.604;2022-09-09T00:10:33;15.40;99.90
41344;DHT22;27089;50.022;7.604;2022-09-09T00:13:08;15.40;99.90
41344;DHT22;27089;50.022;7.604;2022-09-09T00:15:46;15.40;99.90
41344;DHT22;27089;50.022;7.604;2022-09-09T00:18:23;15.40;99.90
41344;DHT22;27089;50.022;7.604;2022-09-09T00:20:56;15.30;99.90
41344;DHT22;27089;50.022;7.604;2022-09-09T00:23:27;15.30;99.90
41344;DHT22;27089;50.022;7.604;2022-09-09T00:26:02;15.30;99.90
41344;DHT22;27089;50.022;7.604;2022-09-09T00:28:38;15.30;99.90
41344;DHT22;27089;50.022;7.604;2022-09-09T00:31:12;15.20;99.90
41344;DHT22;27089;50.022;7.604;2022-09-09T00:33:41;15.20;99.90
41344;DHT22;27089;50.022;7.604;2022-09-09T00:36:13;15.20;99.90
41344;DHT22;27089;50.022;7.604;2022-09-09T00:38:43;15.20;99.90
41344;DHT22;27089;50.022;7.604;2022-09-09T00:41:17;15.20;99.90
41344;DHT22;27089;50.022;7.604;2022-09-09T00:43:53;15.20;99.90
41344;DHT22;27089;50.022;7.604;2022-09-09T00:49:39;15.20;99.90
41344;DHT22;27089;50.022;7.604;2022-09-09T00:52:22;15.20;99.90
41344;DHT22;27089;50.022;7.604;2022-09-09T00:54:57;15.20;99.90
41344;DHT22;27089;50.022;7.604;2022-09-09T00:57:29;15.20;99.90
41344;DHT22;27089;50.022;7.604;2022-09-09T01:00:15;15.10;99.90
41344;DHT22;27089;50.022;7.604;2022-09-09T01:02:53;15.10;99.90
41344;DHT22;27089;50.022;7.604;2022-09-09T01:05:33;15.10;99.90
41344;DHT22;27089;50.022;7.604;2022-09-09T01:08:02;15.00;99.90
41344;DHT22;27089;50.022;7.604;2022-09-09T01:10:39;15.00;99.90
41344;DHT22;27089;50.022;7.604;2022-09-09T01:13:16;15.00;99.90
41344;DHT22;27089;50.022;7.604;2022-09-09T01:15:46;14.90;99.90
41344;DHT22;27089;50.022;7.604;2022-09-09T01:18:17;14.90;99.90
41344;DHT22;27089;50.022;7.604;2022-09-09T01:20:52;14.90;99.90
41344;DHT22;27089;50.022;7.604;2022-09-09T01:23:38;14.90;99.90
41344;DHT22;27089;50.022;7.604;2022-09-09T01:26:18;14.90;99.90
41344;DHT22;27089;50.022;7.604;2022-09-09T01:28:47;14.80;99.90
41344;DHT22;27089;50.022;7.604;2022-09-09T01:31:18;14.80;99.90
41344;DHT22;27089;50.022;7.604;2022-09-09T01:33:46;14.80;99.90
41344;DHT22;27089;50.022;7.604;2022-09-09T01:36:21;14.80;99.90
41344;DHT22;27089;50.022;7.604;2022-09-09T01:38:52;14.80;99.90
41344;DHT22;27089;50.022;7.604;2022-09-09T01:41:20;14.70;99.90
41344;DHT22;27089;50.022;7.604;2022-09-09T01:43:48;14.70;99.90
41344;DHT22;27089;50.022;7.604;2022-09-09T01:46:16;14.70;99.90
41344;DHT22;27089;50.022;7.604;2022-09-09T01:48:44;14.70;99.90
41344;DHT22;27089;50.022;7.604;2022-09-09T01:51:14;14.70;99.90
41344;DHT22;27089;50.022;7.604;2022-09-09T01:53:41;14.60;99.90
41344;DHT22;27089;50.022;7.604;2022-09-09T01:56:18;14.60;99.90
41344;DHT22;27089;50.022;7.604;2022-09-09T01:59:06;14.60;99.90
41344;DHT22;27089;50.022;7.604;2022-09-09T02:01:45;14.60;99.90
41344;DHT22;27089;50.022;7.604;2022-09-09T02:04:23;14.70;99.90
41344;DHT22;27089;50.022;7.604;2022-09-09T02:06:55;14.70;99.90
41344;DHT22;27089;50.022;7.604;2022-09-09T02:09:24;14.70;99.90
41344;DHT22;27089;50.022;7.604;2022-09-09T02:11:57;14.70;99.90
41344;DHT22;27089;50.022;7.604;2022-09-09T02:14:30;14.70;99.90
41344;DHT22;27089;50.022;7.604;2022-09-09T02:17:03;14.70;99.90
41344;DHT22;27089;50.022;7.604;2022-09-09T02:19:32;14.80;99.90
41344;DHT22;27089;50.022;7.604;2022-09-09T02:22:01;14.80;99.90
41344;DHT22;27089;50.022;7.604;2022-09-09T02:24:31;14.80;99.90
41344;DHT22;27089;50.022;7.604;2022-09-09T02:27:02;14.90;99.90
41344;DHT22;27089;50.022;7.604;2022-09-09T02:29:35;14.90;99.90
41344;DHT22;27089;50.022;7.604;2022-09-09T02:32:06;14.90;99.90
41344;DHT22;27089;50.022;7.604;2022-09-09T02:34:35;14.90;99.90
41344;DHT22;27089;50.022;7.604;2022-09-09T02:37:03;14.80;99.90
41344;DHT22;27089;50.022;7.604;2022-09-09T02:39:31;14.90;99.90
41344;DHT22;27089;50.022;7.604;2022-09-09T02:41:58;14.90;99.90
41344;DHT22;27089;50.022;7.604;2022-09-09T02:44:25;14.90;99.90
41344;DHT22;27089;50.022;7.604;2022-09-09T02:47:11;14.90;99.90
41344;DHT22;27089;50.022;7.604;2022-09-09T02:49:51;14.90;99.90
41344;DHT22;27089;50.022;7.604;2022-09-09T02:52:27;14.90;99.90
41344;DHT22;27089;50.022;7.604;2022-09-09T02:55:11;14.90;99.90
41344;DHT22;27089;50.022;7.604;2022-09-09T02:57:40;14.90;99.90
41344;DHT22;27089;50.022;7.604;2022-09-09T03:00:11;14.90;99.90
41344;DHT22;27089;50.022;7.604;2022-09-09T03:02:40;14.90;99.90
41344;DHT22;27089;50.022;7.604;2022-09-09T03:05:08;14.90;99.90
41344;DHT22;27089;50.022;7.604;2022-09-09T03:07:34;14.90;99.90
41344;DHT22;27089;50.022;7.604;2022-09-09T03:10:02;14.80;99.90
41344;DHT22;27089;50.022;7.604;2022-09-09T03:12:29;14.90;99.90
41344;DHT22;27089;50.022;7.604;2022-09-09T03:14:56;14.80;99.90
41344;DHT22;27089;50.022;7.604;2022-09-09T03:17:23;14.90;99.90
41344;DHT22;27089;50.022;7.604;2022-09-09T03:19:54;14.90;99.90
41344;DHT22;27089;50.022;7.604;2022-09-09T03:22:24;14.90;99.90
41344;DHT22;27089;50.022;7.604;2022-09-09T03:24:51;14.90;99.90
41344;DHT22;27089;50.022;7.604;2022-09-09T03:27:18;14.80;99.90
41344;DHT22;27089;50.022;7.604;2022-09-09T03:29:46;14.90;99.90
41344;DHT22;27089;50.022;7.604;2022-09-09T03:32:15;14.80;99.90
41344;DHT22;27089;50.022;7.604;2022-09-09T03:34:43;14.80;99.90
41344;DHT22;27089;50.022;7.604;2022-09-09T03:37:12;14.90;99.90
41344;DHT22;27089;50.022;7.604;2022-09-09T03:39:38;14.80;99.90
41344;DHT22;27089;50.022;7.604;2022-09-09T03:42:06;14.90;99.90
41344;DHT22;27089;50.022;7.604;2022-09-09T03:44:33;14.90;99.90
41344;DHT22;27089;50.022;7.604;2022-09-09T03:47:00;14.90;99.90
41344;DHT22;27089;50.022;7.604;2022-09-09T03:49:27;14.90;99.90
41344;DHT22;27089;50.022;7.604;2022-09-09T03:51:54;14.90;99.90
41344;DHT22;27089;50.022;7.604;2022-09-09T03:54:23;14.90;99.90
41344;DHT22;27089;50.022;7.604;2022-09-09T03:56:50;14.80;99.90
41344;DHT22;27089;50.022;7.604;2022-09-09T03:59:17;14.80;99.90
41344;DHT22;27089;50.022;7.604;2022-09-09T04:01:44;14.80;99.90
41344;DHT22;27089;50.022;7.604;2022-09-09T04:04:12;14.80;99.90
41344;DHT22;27089;50.022;7.604;2022-09-09T04:06:39;14.80;99.90
41344;DHT22;27089;50.022;7.604;2022-09-09T04:09:06;14.80;99.90
41344;DHT22;27089;50.022;7.604;2022-09-09T04:11:34;14.80;99.90
41344;DHT22;27089;50.022;7.604;2022-09-09T04:14:02;14.80;99.90
41344;DHT22;27089;50.022;7.604;2022-09-09T04:16:29;14.80;99.90
41344;DHT22;27089;50.022;7.604;2022-09-09T04:18:56;14.80;99.90
41344;DHT22;27089;50.022;7.604;2022-09-09T04:21:25;14.80;99.90
41344;DHT22;27089;50.022;7.604;2022-09-09T04:23:52;14.80;99.90
41344;DHT22;27089;50.022;7.604;2022-09-09T04:26:19;14.80;99.90
41344;DHT22;27089;50.022;7.604;2022-09-09T04:28:48;14.80;99.90
41344;DHT22;27089;50.022;7.604;2022-09-09T04:31:17;14.80;99.90
41344;DHT22;27089;50.022;7.604;2022-09-09T04:33:45;14.80;99.90
41344;DHT22;27089;50.022;7.604;2022-09-09T04:36:13;14.80;99.90
41344;DHT22;27089;50.022;7.604;2022-09-09T04:38:41;14.80;99.90
41344;DHT22;27089;50.022;7.604;2022-09-09T04:41:10;14.70;99.90
41344;DHT22;27089;50.022;7.604;2022-09-09T04:43:37;14.80;99.90
41344;DHT22;27089;50.022;7.604;2022-09-09T04:46:06;14.80;99.90
41344;DHT22;27089;50.022;7.604;2022-09-09T04:48:33;14.80;99.90
41344;DHT22;27089;50.022;7.604;2022-09-09T04:51:02;14.80;99.90
41344;DHT22;27089;50.022;7.604;2022-09-09T04:53:29;14.80;99.90
41344;DHT22;27089;50.022;7.604;2022-09-09T04:56:02;14.80;99.90
41344;DHT22;27089;50.022;7.604;2022-09-09T04:58:29;14.80;99.90
41344;DHT22;27089;50.022;7.604;2022-09-09T05:01:03;14.70;99.90
41344;DHT22;27089;50.022;7.604;2022-09-09T05:03:32;14.70;99.90
41344;DHT22;27089;50.022;7.604;2022-09-09T05:06:05;14.70;99.90
41344;DHT22;27089;50.022;7.604;2022-09-09T05:08:35;14.70;99.90
41344;DHT22;27089;50.022;7.604;2022-09-09T05:11:02;14.70;99.90
41344;DHT22;27089;50.022;7.604;2022-09-09T05:13:29;14.70;99.90
41344;DHT22;27089;50.022;7.604;2022-09-09T05:15:57;14.70;99.90
41344;DHT22;27089;50.022;7.604;2022-09-09T05:18:24;14.70;99.90
41344;DHT22;27089;50.022;7.604;2022-09-09T05:20:58;14.70;99.90
41344;DHT22;27089;50.022;7.604;2022-09-09T05:23:25;14.80;99.90
41344;DHT22;27089;50.022;7.604;2022-09-09T05:25:56;14.80;99.90
41344;DHT22;27089;50.022;7.604;2022-09-09T05:28:24;14.90;99.90
41344;DHT22;27089;50.022;7.604;2022-09-09T05:30:56;14.90;99.90
41344;DHT22;27089;50.022;7.604;2022-09-09T05:33:24;15.00;99.90
41344;DHT22;27089;50.022;7.604;2022-09-09T05:35:57;15.10;99.90
41344;DHT22;27089;50.022;7.604;2022-09-09T05:38:24;15.30;99.90
41344;DHT22;27089;50.022;7.604;2022-09-09T05:40:51;15.30;99.90
41344;DHT22;27089;50.022;7.604;2022-09-09T05:43:19;15.50;99.90
41344;DHT22;27089;50.022;7.604;2022-09-09T05:45:46;15.50;99.90
41344;DHT22;27089;50.022;7.604;2022-09-09T05:48:14;15.60;99.90
41344;DHT22;27089;50.022;7.604;2022-09-09T05:50:41;15.60;99.90
41344;DHT22;27089;50.022;7.604;2022-09-09T05:53:11;15.60;99.90
41344;DHT22;27089;50.022;7.604;2022-09-09T05:55:38;15.60;99.90
41344;DHT22;27089;50.022;7.604;2022-09-09T05:58:05;15.60;99.90
41344;DHT22;27089;50.022;7.604;2022-09-09T06:00:32;15.70;99.90
41344;DHT22;27089;50.022;7.604;2022-09-09T06:02:59;15.80;99.90
41344;DHT22;27089;50.022;7.604;2022-09-09T06:05:26;16.00;99.90
41344;DHT22;27089;50.022;7.604;2022-09-09T06:07:54;16.20;99.90
41344;DHT22;27089;50.022;7.604;2022-09-09T06:10:22;16.50;99.90
41344;DHT22;27089;50.022;7.604;2022-09-09T06:12:52;16.50;99.90
41344;DHT22;27089;50.022;7.604;2022-09-09T06:15:20;16.50;99.90
41344;DHT22;27089;50.022;7.604;2022-09-09T06:17:47;16.40;99.90
41344;DHT22;27089;50.022;7.604;2022-09-09T06:20:15;16.30;99.90
41344;DHT22;27089;50.022;7.604;2022-09-09T06:22:41;16.30;99.90
41344;DHT22;27089;50.022;7.604;2022-09-09T06:25:09;16.30;99.90
41344;DHT22;27089;50.022;7.604;2022-09-09T06:27:37;16.30;99.90
41344;DHT22;27089;50.022;7.604;2022-09-09T06:30:05;16.20;99.90
41344;DHT22;27089;50.022;7.604;2022-09-09T06:32:33;16.20;99.90
41344;DHT22;27089;50.022;7.604;2022-09-09T06:35:02;16.30;99.90
41344;DHT22;27089;50.022;7.604;2022-09-09T06:37:29;16.50;99.90
41344;DHT22;27089;50.022;7.604;2022-09-09T06:39:56;16.60;99.90
41344;DHT22;27089;50.022;7.604;2022-09-09T06:42:23;16.70;99.90
41344;DHT22;27089;50.022;7.604;2022-09-09T06:44:51;16.80;99.90
41344;DHT22;27089;50.022;7.604;2022-09-09T06:47:19;16.90;99.90
41344;DHT22;27089;50.022;7.604;2022-09-09T06:49:45;17.00;99.90
41344;DHT22;27089;50.022;7.604;2022-09-09T06:52:12;17.00;99.90
41344;DHT22;27089;50.022;7.604;2022-09-09T06:54:39;17.10;99.90
41344;DHT22;27089;50.022;7.604;2022-09-09T06:57:06;17.20;99.90
41344;DHT22;27089;50.022;7.604;2022-09-09T06:59:33;17.40;99.90
41344;DHT22;27089;50.022;7.604;2022-09-09T07:02:02;17.60;99.90
41344;DHT22;27089;50.022;7.604;2022-09-09T07:04:29;17.70;99.90
41344;DHT22;27089;50.022;7.604;2022-09-09T07:06:56;17.90;99.90
41344;DHT22;27089;50.022;7.604;2022-09-09T07:09:24;18.60;99.90
41344;DHT22;27089;50.022;7.604;2022-09-09T07:11:52;18.70;99.90
41344;DHT22;27089;50.022;7.604;2022-09-09T07:14:20;18.70;99.90
41344;DHT22;27089;50.022;7.604;2022-09-09T07:16:47;18.30;99.90
41344;DHT22;27089;50.022;7.604;2022-09-09T07:19:15;17.90;99.90
41344;DHT22;27089;50.022;7.604;2022-09-09T07:21:43;17.80;99.90
41344;DHT22;27089;50.022;7.604;2022-09-09T07:24:11;17.70;99.90
41344;DHT22;27089;50.022;7.604;2022-09-09T07:26:38;17.80;99.90
41344;DHT22;27089;50.022;7.604;2022-09-09T07:29:06;17.80;99.90
41344;DHT22;27089;50.022;7.604;2022-09-09T07:31:34;17.90;99.90
41344;DHT22;27089;50.022;7.604;2022-09-09T07:34:02;18.30;99.90
41344;DHT22;27089;50.022;7.604;2022-09-09T07:36:33;18.50;99.90
41344;DHT22;27089;50.022;7.604;2022-09-09T07:39:02;18.40;99.90
41344;DHT22;27089;50.022;7.604;2022-09-09T07:41:32;18.20;99.90
41344;DHT22;27089;50.022;7.604;2022-09-09T07:44:04;18.20;99.90
41344;DHT22;27089;50.022;7.604;2022-09-09T07:46:32;18.40;99.90
41344;DHT22;27089;50.022;7.604;2022-09-09T07:48:59;18.50;99.90
41344;DHT22;27089;50.022;7.604;2022-09-09T07:51:28;18.40;99.90
41344;DHT22;27089;50.022;7.604;2022-09-09T07:53:58;18.30;99.90
41344;DHT22;27089;50.022;7.604;2022-09-09T07:56:28;18.30;99.90
41344;DHT22;27089;50.022;7.604;2022-09-09T07:58:56;18.10;99.90
41344;DHT22;27089;50.022;7.604;2022-09-09T08:01:27;18.20;99.90
41344;DHT22;27089;50.022;7.604;2022-09-09T08:03:55;18.40;99.90
41344;DHT22;27089;50.022;7.604;2022-09-09T08:06:25;19.00;99.90
41344;DHT22;27089;50.022;7.604;2022-09-09T08:08:52;19.90;99.90
41344;DHT22;27089;50.022;7.604;2022-09-09T08:11:23;20.50;99.90
41344;DHT22;27089;50.022;7.604;2022-09-09T08:13:51;20.20;99.90
41344;DHT22;27089;50.022;7.604;2022-09-09T08:16:19;20.50;99.90
41344;DHT22;27089;50.022;7.604;2022-09-09T08:18:48;21.40;99.90
41344;DHT22;27089;50.022;7.604;2022-09-09T08:21:16;21.30;99.90
41344;DHT22;27089;50.022;7.604;2022-09-09T08:23:45;20.80;99.90
41344;DHT22;27089;50.022;7.604;2022-09-09T08:26:14;20.60;99.90
41344;DHT22;27089;50.022;7.604;2022-09-09T08:28:43;20.40;99.90
41344;DHT22;27089;50.022;7.604;2022-09-09T08:31:12;20.40;99.90
41344;DHT22;27089;50.022;7.604;2022-09-09T08:33:40;20.20;99.90
41344;DHT22;27089;50.022;7.604;2022-09-09T08:36:09;20.40;99.90
41344;DHT22;27089;50.022;7.604;2022-09-09T08:38:37;21.10;99.90
41344;DHT22;27089;50.022;7.604;2022-09-09T08:44:03;22.40;99.90
41344;DHT22;27089;50.022;7.604;2022-09-09T08:46:36;24.00;99.90
41344;DHT22;27089;50.022;7.604;2022-09-09T08:49:16;24.40;99.90
41344;DHT22;27089;50.022;7.604;2022-09-09T08:51:45;24.60;99.90
41344;DHT22;27089;50.022;7.604;2022-09-09T08:54:12;23.60;99.90
41344;DHT22;27089;50.022;7.604;2022-09-09T08:56:39;22.50;99.90
41344;DHT22;27089;50.022;7.604;2022-09-09T08:59:11;21.90;99.90
41344;DHT22;27089;50.022;7.604;2022-09-09T09:01:49;21.30;99.90
41344;DHT22;27089;50.022;7.604;2022-09-09T09:04:38;20.60;99.90
41344;DHT22;27089;50.022;7.604;2022-09-09T09:07:17;19.80;99.90
41344;DHT22;27089;50.022;7.604;2022-09-09T09:09:57;19.40;99.90
41344;DHT22;27089;50.022;7.604;2022-09-09T09:12:30;19.20;99.90
41344;DHT22;27089;50.022;7.604;2022-09-09T09:15:00;19.10;99.90
41344;DHT22;27089;50.022;7.604;2022-09-09T09:17:28;19.60;99.90
41344;DHT22;27089;50.022;7.604;2022-09-09T09:19:58;20.30;99.90
41344;DHT22;27089;50.022;7.604;2022-09-09T09:22:30;20.60;99.90
41344;DHT22;27089;50.022;7.604;2022-09-09T09:25:02;20.80;99.90
41344;DHT22;27089;50.022;7.604;2022-09-09T09:27:42;21.00;99.90
41344;DHT22;27089;50.022;7.604;2022-09-09T09:30:17;21.30;99.90
41344;DHT22;27089;50.022;7.604;2022-09-09T09:32:53;21.20;99.90
41344;DHT22;27089;50.022;7.604;2022-09-09T09:35:21;21.10;99.90
41344;DHT22;27089;50.022;7.604;2022-09-09T09:37:48;20.80;99.90
41344;DHT22;27089;50.022;7.604;2022-09-09T09:40:17;20.30;99.90
41344;DHT22;27089;50.022;7.604;2022-09-09T09:42:52;20.00;99.90
41344;DHT22;27089;50.022;7.604;2022-09-09T09:45:29;20.30;99.90
41344;DHT22;27089;50.022;7.604;2022-09-09T09:48:00;20.40;99.90
41344;DHT22;27089;50.022;7.604;2022-09-09T09:50:28;20.70;99.90
41344;DHT22;27089;50.022;7.604;2022-09-09T09:52:56;20.90;99.90
41344;DHT22;27089;50.022;7.604;2022-09-09T09:55:24;21.50;99.90
41344;DHT22;27089;50.022;7.604;2022-09-09T09:57:53;22.00;99.90
41344;DHT22;27089;50.022;7.604;2022-09-09T10:00:22;22.50;99.90
41344;DHT22;27089;50.022;7.604;2022-09-09T10:02:51;23.20;99.90
41344;DHT22;27089;50.022;7.604;2022-09-09T10:05:20;23.00;99.90
41344;DHT22;27089;50.022;7.604;2022-09-09T10:08:03;22.50;99.90
41344;DHT22;27089;50.022;7.604;2022-09-09T10:10:41;21.90;99.90
41344;DHT22;27089;50.022;7.604;2022-09-09T10:13:15;21.50;99.90
41344;DHT22;27089;50.022;7.604;2022-09-09T10:15:50;21.40;99.90
41344;DHT22;27089;50.022;7.604;2022-09-09T10:18:38;21.90;99.90
41344;DHT22;27089;50.022;7.604;2022-09-09T10:21:18;22.90;99.90
41344;DHT22;27089;50.022;7.604;2022-09-09T10:24:14;23.00;99.90
41344;DHT22;27089;50.022;7.604;2022-09-09T10:26:47;22.60;99.90
41344;DHT22;27089;50.022;7.604;2022-09-09T10:29:37;22.00;99.90
41344;DHT22;27089;50.022;7.604;2022-09-09T10:32:24;21.50;99.90
41344;DHT22;27089;50.022;7.604;2022-09-09T10:35:04;21.00;99.90
41344;DHT22;27089;50.022;7.604;2022-09-09T10:37:41;20.60;99.90
41344;DHT22;27089;50.022;7.604;2022-09-09T10:40:23;20.30;99.90
41344;DHT22;27089;50.022;7.604;2022-09-09T10:42:53;20.10;99.90
41344;DHT22;27089;50.022;7.604;2022-09-09T10:45:29;20.00;99.90
41344;DHT22;27089;50.022;7.604;2022-09-09T10:48:12;20.00;99.90
41344;DHT22;27089;50.022;7.604;2022-09-09T10:50:55;19.80;99.90
41344;DHT22;27089;50.022;7.604;2022-09-09T10:53:35;19.80;99.90
41344;DHT22;27089;50.022;7.604;2022-09-09T10:56:06;19.80;99.90
41344;DHT22;27089;50.022;7.604;2022-09-09T10:58:40;19.90;99.90
41344;DHT22;27089;50.022;7.604;2022-09-09T11:01:14;20.20;99.90
41344;DHT22;27089;50.022;7.604;2022-09-09T11:03:43;20.30;99.90
41344;DHT22;27089;50.022;7.604;2022-09-09T11:06:17;20.10;99.90
41344;DHT22;27089;50.022;7.604;2022-09-09T11:08:46;20.00;99.90
41344;DHT22;27089;50.022;7.604;2022-09-09T11:11:18;19.90;99.90
41344;DHT22;27089;50.022;7.604;2022-09-09T11:13:53;19.90;99.90
41344;DHT22;27089;50.022;7.604;2022-09-09T11:16:25;20.20;99.90
41344;DHT22;27089;50.022;7.604;2022-09-09T11:18:59;20.30;99.90
41344;DHT22;27089;50.022;7.604;2022-09-09T11:21:32;20.50;99.90
41344;DHT22;27089;50.022;7.604;2022-09-09T11:24:04;20.60;99.90
41344;DHT22;27089;50.022;7.604;2022-09-09T11:26:41;20.60;99.90
41344;DHT22;27089;50.022;7.604;2022-09-09T11:29:35;20.60;99.90
41344;DHT22;27089;50.022;7.604;2022-09-09T11:35:05;20.40;99.90
41344;DHT22;27089;50.022;7.604;2022-09-09T11:37:51;20.20;99.90
41344;DHT22;27089;50.022;7.604;2022-09-09T11:40:23;20.00;99.90
41344;DHT22;27089;50.022;7.604;2022-09-09T11:43:02;19.90;99.90
41344;DHT22;27089;50.022;7.604;2022-09-09T11:45:30;19.80;99.90
41344;DHT22;27089;50.022;7.604;2022-09-09T11:47:58;19.70;99.90
41344;DHT22;27089;50.022;7.604;2022-09-09T11:50:34;19.60;99.90
41344;DHT22;27089;50.022;7.604;2022-09-09T11:53:22;19.70;99.90
41344;DHT22;27089;50.022;7.604;2022-09-09T11:56:04;19.90;99.90
41344;DHT22;27089;50.022;7.604;2022-09-09T11:58:37;20.20;99.90
41344;DHT22;27089;50.022;7.604;2022-09-09T12:01:26;20.20;99.90
41344;DHT22;27089;50.022;7.604;2022-09-09T12:04:13;20.00;99.90
41344;DHT22;27089;50.022;7.604;2022-09-09T12:06:44;19.80;99.90
41344;DHT22;27089;50.022;7.604;2022-09-09T12:09:22;19.50;99.90
41344;DHT22;27089;50.022;7.604;2022-09-09T12:11:50;19.50;99.90
41344;DHT22;27089;50.022;7.604;2022-09-09T12:14:22;19.50;99.90
41344;DHT22;27089;50.022;7.604;2022-09-09T12:16:50;19.80;99.90
41344;DHT22;27089;50.022;7.604;2022-09-09T12:19:19;19.90;99.90
41344;DHT22;27089;50.022;7.604;2022-09-09T12:21:54;20.00;99.90
41344;DHT22;27089;50.022;7.604;2022-09-09T12:24:30;20.00;99.90
41344;DHT22;27089;50.022;7.604;2022-09-09T12:27:02;20.30;99.90
41344;DHT22;27089;50.022;7.604;2022-09-09T12:29:39;20.40;99.90
41344;DHT22;27089;50.022;7.604;2022-09-09T12:32:11;20.30;99.90
41344;DHT22;27089;50.022;7.604;2022-09-09T12:34:40;20.50;99.90
41344;DHT22;27089;50.022;7.604;2022-09-09T12:37:24;20.30;99.90
41344;DHT22;27089;50.022;7.604;2022-09-09T12:39:56;20.10;99.90
41344;DHT22;27089;50.022;7.604;2022-09-09T12:42:24;19.90;99.90
41344;DHT22;27089;50.022;7.604;2022-09-09T12:44:52;19.80;99.90
41344;DHT22;27089;50.022;7.604;2022-09-09T12:47:21;19.80;99.90
41344;DHT22;27089;50.022;7.604;2022-09-09T12:49:50;19.80;99.90
41344;DHT22;27089;50.022;7.604;2022-09-09T12:52:23;19.70;99.90
41344;DHT22;27089;50.022;7.604;2022-09-09T12:54:53;19.60;99.90
41344;DHT22;27089;50.022;7.604;2022-09-09T12:57:25;19.60;99.90
41344;DHT22;27089;50.022;7.604;2022-09-09T13:00:03;19.60;99.90
41344;DHT22;27089;50.022;7.604;2022-09-09T13:02:30;19.60;99.90
41344;DHT22;27089;50.022;7.604;2022-09-09T13:05:08;19.50;99.90
41344;DHT22;27089;50.022;7.604;2022-09-09T13:07:40;19.30;99.90
41344;DHT22;27089;50.022;7.604;2022-09-09T13:10:11;19.10;99.90
41344;DHT22;27089;50.022;7.604;2022-09-09T13:12:40;18.70;99.90
41344;DHT22;27089;50.022;7.604;2022-09-09T13:15:18;18.10;99.90
41344;DHT22;27089;50.022;7.604;2022-09-09T13:17:53;17.60;99.90
41344;DHT22;27089;50.022;7.604;2022-09-09T13:20:22;17.30;99.90
41344;DHT22;27089;50.022;7.604;2022-09-09T13:22:51;17.10;99.90
41344;DHT22;27089;50.022;7.604;2022-09-09T13:25:22;17.00;99.90
41344;DHT22;27089;50.022;7.604;2022-09-09T13:28:00;17.00;99.90
41344;DHT22;27089;50.022;7.604;2022-09-09T13:30:29;17.10;99.90
41344;DHT22;27089;50.022;7.604;2022-09-09T13:33:02;17.20;99.90
41344;DHT22;27089;50.022;7.604;2022-09-09T13:35:30;17.50;99.90
41344;DHT22;27089;50.022;7.604;2022-09-09T13:37:58;17.80;99.90
41344;DHT22;27089;50.022;7.604;2022-09-09T13:40:26;18.00;99.90
41344;DHT22;27089;50.022;7.604;2022-09-09T13:42:56;18.40;99.90
41344;DHT22;27089;50.022;7.604;2022-09-09T13:45:26;18.70;99.90
41344;DHT22;27089;50.022;7.604;2022-09-09T13:47:54;18.90;99.90
41344;DHT22;27089;50.022;7.604;2022-09-09T13:50:23;19.00;99.90
41344;DHT22;27089;50.022;7.604;2022-09-09T13:52:51;19.00;99.90
41344;DHT22;27089;50.022;7.604;2022-09-09T13:55:20;19.00;99.90
41344;DHT22;27089;50.022;7.604;2022-09-09T13:57:52;19.10;99.90
41344;DHT22;27089;50.022;7.604;2022-09-09T14:00:19;19.30;99.90
41344;DHT22;27089;50.022;7.604;2022-09-09T14:02:48;19.40;99.90
41344;DHT22;27089;50.022;7.604;2022-09-09T14:05:15;19.50;99.90
41344;DHT22;27089;50.022;7.604;2022-09-09T14:07:43;19.30;99.90
41344;DHT22;27089;50.022;7.604;2022-09-09T14:10:11;19.40;99.90
41344;DHT22;27089;50.022;7.604;2022-09-09T14:12:38;19.20;99.90
41344;DHT22;27089;50.022;7.604;2022-09-09T14:15:07;19.30;99.90
41344;DHT22;27089;50.022;7.604;2022-09-09T14:17:34;19.30;99.90
41344;DHT22;27089;50.022;7.604;2022-09-09T14:20:04;19.40;99.90
41344;DHT22;27089;50.022;7.604;2022-09-09T14:22:33;19.50;99.90
41344;DHT22;27089;50.022;7.604;2022-09-09T14:25:01;19.40;99.90
41344;DHT22;27089;50.022;7.604;2022-09-09T14:27:28;19.30;99.90
41344;DHT22;27089;50.022;7.604;2022-09-09T14:29:55;19.40;99.90
41344;DHT22;27089;50.022;7.604;2022-09-09T14:32:23;19.40;99.90
41344;DHT22;27089;50.022;7.604;2022-09-09T14:34:50;19.40;99.90
41344;DHT22;27089;50.022;7.604;2022-09-09T14:37:19;19.40;99.90
41344;DHT22;27089;50.022;7.604;2022-09-09T14:39:47;19.30;99.90
41344;DHT22;27089;50.022;7.604;2022-09-09T14:42:16;19.30;99.90
41344;DHT22;27089;50.022;7.604;2022-09-09T14:44:43;19.30;99.90
41344;DHT22;27089;50.022;7.604;2022-09-09T14:47:10;19.20;99.90
41344;DHT22;27089;50.022;7.604;2022-09-09T14:49:37;18.90;99.90
41344;DHT22;27089;50.022;7.604;2022-09-09T14:52:05;18.70;99.90
41344;DHT22;27089;50.022;7.604;2022-09-09T14:54:33;18.50;99.90
41344;DHT22;27089;50.022;7.604;2022-09-09T14:57:00;18.30;99.90
41344;DHT22;27089;50.022;7.604;2022-09-09T14:59:27;18.10;99.90
41344;DHT22;27089;50.022;7.604;2022-09-09T15:01:54;17.90;99.90
41344;DHT22;27089;50.022;7.604;2022-09-09T15:04:22;17.80;99.90
41344;DHT22;27089;50.022;7.604;2022-09-09T15:06:49;17.60;99.90
41344;DHT22;27089;50.022;7.604;2022-09-09T15:09:18;17.40;99.90
41344;DHT22;27089;50.022;7.604;2022-09-09T15:11:47;17.20;99.90
41344;DHT22;27089;50.022;7.604;2022-09-09T15:14:14;17.10;99.90
41344;DHT22;27089;50.022;7.604;2022-09-09T15:16:41;17.00;99.90
41344;DHT22;27089;50.022;7.604;2022-09-09T15:19:08;17.00;99.90
41344;DHT22;27089;50.022;7.604;2022-09-09T15:21:37;16.90;99.90
41344;DHT22;27089;50.022;7.604;2022-09-09T15:24:05;16.90;99.90
41344;DHT22;27089;50.022;7.604;2022-09-09T15:26:32;16.90;99.90
41344;DHT22;27089;50.022;7.604;2022-09-09T15:29:01;16.80;99.90
41344;DHT22;27089;50.022;7.604;2022-09-09T15:31:29;16.80;99.90
41344;DHT22;27089;50.022;7.604;2022-09-09T15:33:58;16.80;99.90
41344;DHT22;27089;50.022;7.604;2022-09-09T15:36:28;16.70;99.90
41344;DHT22;27089;50.022;7.604;2022-09-09T15:38:55;16.60;99.90
41344;DHT22;27089;50.022;7.604;2022-09-09T15:41:23;16.60;99.90
41344;DHT22;27089;50.022;7.604;2022-09-09T15:43:52;16.50;99.90
41344;DHT22;27089;50.022;7.604;2022-09-09T15:46:32;16.50;99.90
41344;DHT22;27089;50.022;7.604;2022-09-09T15:49:04;16.50;99.90
41344;DHT22;27089;50.022;7.604;2022-09-09T15:51:35;16.50;99.90
41344;DHT22;27089;50.022;7.604;2022-09-09T15:54:03;16.50;99.90
41344;DHT22;27089;50.022;7.604;2022-09-09T15:56:30;16.50;99.90
41344;DHT22;27089;50.022;7.604;2022-09-09T15:58:58;16.50;99.90
41344;DHT22;27089;50.022;7.604;2022-09-09T16:01:27;16.40;99.90